sensor_id;sensor_type;location;lat;lon;timestamp;pressure;altitude;pressure_sealevel;temperature;humidity
21779;BME280;11050;52.222;20.916;2023-02-18T00:01:27;99078.44;;;8.21;100.00
21779;BME280;11050;52.222;20.916;2023-02-18T00:03:56;99098.66;;;8.10;100.00
21779;BME280;11050;52.222;20.916;2023-02-18T00:06:30;99102.72;;;8.03;100.00
21779;BME280;11050;52.222;20.916;2023-02-18T00:08:57;99098.81;;;7.89;100.00
21779;BME280;11050;52.222;20.916;2023-02-18T00:11:27;99093.84;;;7.81;100.00
21779;BME280;11050;52.222;20.916;2023-02-18T00:13:59;99146.59;;;7.76;100.00
21779;BME280;11050;52.222;20.916;2023-02-18T00:16:27;99095.44;;;7.72;100.00
21779;BME280;11050;52.222;20.916;2023-02-18T00:19:00;99109.09;;;7.66;100.00
21779;BME280;11050;52.222;20.916;2023-02-18T00:21:26;99129.63;;;7.69;100.00
21779;BME280;11050;52.222;20.916;2023-02-18T00:23:54;99116.19;;;7.67;100.00
21779;BME280;11050;52.222;20.916;2023-02-18T00:26:20;99126.06;;;7.68;100.00
21779;BME280;11050;52.222;20.916;2023-02-18T00:28:47;99141.34;;;7.64;100.00
21779;BME280;11050;52.222;20.916;2023-02-18T00:31:17;99128.97;;;7.57;100.00
21779;BME280;11050;52.222;20.916;2023-02-18T00:33:44;99124.00;;;7.49;100.00
21779;BME280;11050;52.222;20.916;2023-02-18T00:36:13;99129.28;;;7.60;100.00
21779;BME280;11050;52.222;20.916;2023-02-18T00:38:51;99170.31;;;7.65;99.87
21779;BME280;11050;52.222;20.916;2023-02-18T00:41:19;99134.72;;;7.55;99.59
21779;BME280;11050;52.222;20.916;2023-02-18T00:43:45;99139.69;;;7.63;98.79
21779;BME280;11050;52.222;20.916;2023-02-18T00:46:12;99156.63;;;7.65;98.05
21779;BME280;11050;52.222;20.916;2023-02-18T00:48:37;99132.03;;;7.65;97.83
21779;BME280;11050;52.222;20.916;2023-02-18T00:51:04;99125.72;;;7.60;96.50
21779;BME280;11050;52.222;20.916;2023-02-18T00:53:31;99165.06;;;7.59;96.30
21779;BME280;11050;52.222;20.916;2023-02-18T00:55:57;99184.22;;;7.59;95.68
21779;BME280;11050;52.222;20.916;2023-02-18T00:58:23;99169.97;;;7.57;93.62
21779;BME280;11050;52.222;20.916;2023-02-18T01:00:49;99139.94;;;7.62;92.67
21779;BME280;11050;52.222;20.916;2023-02-18T01:03:15;99145.66;;;7.55;93.58
21779;BME280;11050;52.222;20.916;2023-02-18T01:05:42;99132.84;;;7.61;92.14
21779;BME280;11050;52.222;20.916;2023-02-18T01:08:09;99161.50;;;7.58;92.09
21779;BME280;11050;52.222;20.916;2023-02-18T01:10:43;99136.97;;;7.63;91.84
21779;BME280;11050;52.222;20.916;2023-02-18T01:13:11;99148.22;;;7.72;91.52
21779;BME280;11050;52.222;20.916;2023-02-18T01:15:39;99154.25;;;7.74;91.26
21779;BME280;11050;52.222;20.916;2023-02-18T01:18:05;99181.91;;;7.83;89.90
21779;BME280;11050;52.222;20.916;2023-02-18T01:20:34;99157.34;;;7.88;88.76
21779;BME280;11050;52.222;20.916;2023-02-18T01:22:59;99160.09;;;7.88;87.08
21779;BME280;11050;52.222;20.916;2023-02-18T01:25:25;99141.50;;;7.95;85.38
21779;BME280;11050;52.222;20.916;2023-02-18T01:27:51;99153.00;;;7.92;86.88
21779;BME280;11050;52.222;20.916;2023-02-18T01:30:17;99170.41;;;7.81;88.48
21779;BME280;11050;52.222;20.916;2023-02-18T01:32:44;99191.25;;;7.87;88.48
21779;BME280;11050;52.222;20.916;2023-02-18T01:35:13;99146.41;;;7.88;88.45
21779;BME280;11050;52.222;20.916;2023-02-18T01:37:40;99134.84;;;7.76;90.05
21779;BME280;11050;52.222;20.916;2023-02-18T01:40:23;99138.69;;;7.80;90.88
21779;BME280;11050;52.222;20.916;2023-02-18T01:42:50;99157.84;;;7.85;89.73
21779;BME280;11050;52.222;20.916;2023-02-18T01:48:31;99142.63;;;7.94;87.57
21779;BME280;11050;52.222;20.916;2023-02-18T01:51:10;99160.94;;;7.93;88.68
21779;BME280;11050;52.222;20.916;2023-02-18T01:56:44;99120.19;;;7.92;89.01
21779;BME280;11050;52.222;20.916;2023-02-18T01:59:27;99121.81;;;7.93;88.31
21779;BME280;11050;52.222;20.916;2023-02-18T02:01:55;99143.72;;;7.98;87.64
21779;BME280;11050;52.222;20.916;2023-02-18T02:04:21;99128.91;;;7.89;86.97
21779;BME280;11050;52.222;20.916;2023-02-18T02:06:47;99123.97;;;7.91;87.54
21779;BME280;11050;52.222;20.916;2023-02-18T02:09:17;99119.06;;;7.88;88.36
21779;BME280;11050;52.222;20.916;2023-02-18T02:12:34;99137.66;;;7.91;87.59
21779;BME280;11050;52.222;20.916;2023-02-18T02:15:46;99145.59;;;7.92;86.34
21779;BME280;11050;52.222;20.916;2023-02-18T02:18:48;99112.97;;;7.81;87.54
21779;BME280;11050;52.222;20.916;2023-02-18T02:24:53;99119.78;;;7.73;87.00
21779;BME280;11050;52.222;20.916;2023-02-18T02:28:07;99112.44;;;7.79;85.44
21779;BME280;11050;52.222;20.916;2023-02-18T02:31:06;99128.50;;;7.65;86.00
21779;BME280;11050;52.222;20.916;2023-02-18T02:39:42;99122.94;;;7.55;86.48
21779;BME280;11050;52.222;20.916;2023-02-18T02:45:06;99133.69;;;7.66;85.43
21779;BME280;11050;52.222;20.916;2023-02-18T02:53:05;99122.13;;;7.54;85.38
21779;BME280;11050;52.222;20.916;2023-02-18T02:55:37;99151.13;;;7.60;85.02
21779;BME280;11050;52.222;20.916;2023-02-18T02:58:03;99131.16;;;7.55;85.78
21779;BME280;11050;52.222;20.916;2023-02-18T03:06:41;99147.84;;;7.58;86.27
21779;BME280;11050;52.222;20.916;2023-02-18T03:09:46;99145.28;;;7.47;86.68
21779;BME280;11050;52.222;20.916;2023-02-18T03:15:04;99175.72;;;7.55;85.25
21779;BME280;11050;52.222;20.916;2023-02-18T03:17:45;99148.94;;;7.57;85.40
21779;BME280;11050;52.222;20.916;2023-02-18T03:20:19;99147.28;;;7.56;85.45
21779;BME280;11050;52.222;20.916;2023-02-18T03:22:50;99163.28;;;7.43;86.53
21779;BME280;11050;52.222;20.916;2023-02-18T03:25:18;99181.09;;;7.45;86.22
21779;BME280;11050;52.222;20.916;2023-02-18T03:28:04;99176.66;;;7.39;85.96
21779;BME280;11050;52.222;20.916;2023-02-18T03:30:41;99179.69;;;7.43;86.73
21779;BME280;11050;52.222;20.916;2023-02-18T03:33:14;99170.41;;;7.39;85.48
21779;BME280;11050;52.222;20.916;2023-02-18T03:35:43;99147.16;;;7.41;85.18
21779;BME280;11050;52.222;20.916;2023-02-18T03:38:26;99188.16;;;7.41;85.74
21779;BME280;11050;52.222;20.916;2023-02-18T03:40:54;99158.09;;;7.41;85.19
21779;BME280;11050;52.222;20.916;2023-02-18T03:43:19;99170.88;;;7.31;85.99
21779;BME280;11050;52.222;20.916;2023-02-18T03:45:45;99181.53;;;7.32;84.55
21779;BME280;11050;52.222;20.916;2023-02-18T03:48:11;99185.41;;;7.36;85.28
21779;BME280;11050;52.222;20.916;2023-02-18T03:50:37;99188.16;;;7.41;84.75
21779;BME280;11050;52.222;20.916;2023-02-18T03:53:02;99198.47;;;7.29;84.15
21779;BME280;11050;52.222;20.916;2023-02-18T03:55:28;99199.81;;;7.32;85.01
21779;BME280;11050;52.222;20.916;2023-02-18T03:57:54;99194.13;;;7.33;84.81
21779;BME280;11050;52.222;20.916;2023-02-18T04:00:20;99209.47;;;7.39;85.26
21779;BME280;11050;52.222;20.916;2023-02-18T04:02:46;99235.66;;;7.35;84.79
21779;BME280;11050;52.222;20.916;2023-02-18T04:05:12;99187.75;;;7.28;85.78
21779;BME280;11050;52.222;20.916;2023-02-18T04:07:38;99218.66;;;7.28;85.65
21779;BME280;11050;52.222;20.916;2023-02-18T04:10:05;99203.38;;;7.32;84.83
21779;BME280;11050;52.222;20.916;2023-02-18T04:12:31;99219.75;;;7.27;85.04
21779;BME280;11050;52.222;20.916;2023-02-18T04:14:56;99197.59;;;7.24;85.67
21779;BME280;11050;52.222;20.916;2023-02-18T04:17:22;99208.19;;;7.20;86.83
21779;BME280;11050;52.222;20.916;2023-02-18T04:19:48;99229.75;;;7.17;86.60
21779;BME280;11050;52.222;20.916;2023-02-18T04:22:14;99191.75;;;7.15;86.92
21779;BME280;11050;52.222;20.916;2023-02-18T04:24:39;99197.81;;;7.22;86.42
21779;BME280;11050;52.222;20.916;2023-02-18T04:27:05;99208.19;;;7.20;85.02
21779;BME280;11050;52.222;20.916;2023-02-18T04:29:31;99209.16;;;7.09;86.90
21779;BME280;11050;52.222;20.916;2023-02-18T04:31:56;99205.41;;;7.15;86.56
21779;BME280;11050;52.222;20.916;2023-02-18T04:34:22;99271.50;;;7.12;86.29
21779;BME280;11050;52.222;20.916;2023-02-18T04:36:48;99224.84;;;7.19;86.36
21779;BME280;11050;52.222;20.916;2023-02-18T04:39:13;99218.09;;;7.26;84.80
21779;BME280;11050;52.222;20.916;2023-02-18T04:41:39;99195.06;;;7.17;84.71
21779;BME280;11050;52.222;20.916;2023-02-18T04:44:04;99210.31;;;7.13;84.93
21779;BME280;11050;52.222;20.916;2023-02-18T04:46:31;99224.03;;;7.18;84.15
21779;BME280;11050;52.222;20.916;2023-02-18T04:48:57;99198.06;;;7.16;84.40
21779;BME280;11050;52.222;20.916;2023-02-18T04:51:23;99217.44;;;7.14;84.55
21779;BME280;11050;52.222;20.916;2023-02-18T04:53:49;99209.97;;;7.05;84.43
21779;BME280;11050;52.222;20.916;2023-02-18T04:56:14;99217.94;;;7.11;85.38
21779;BME280;11050;52.222;20.916;2023-02-18T04:58:40;99249.34;;;7.09;84.92
21779;BME280;11050;52.222;20.916;2023-02-18T05:01:06;99222.22;;;7.02;84.99
21779;BME280;11050;52.222;20.916;2023-02-18T05:03:32;99215.16;;;7.06;83.98
21779;BME280;11050;52.222;20.916;2023-02-18T05:05:58;99223.31;;;7.01;85.34
21779;BME280;11050;52.222;20.916;2023-02-18T05:08:24;99194.28;;;6.95;85.33
21779;BME280;11050;52.222;20.916;2023-02-18T05:10:50;99332.78;;;7.00;84.61
21779;BME280;11050;52.222;20.916;2023-02-18T05:13:16;99186.41;;;6.99;83.69
21779;BME280;11050;52.222;20.916;2023-02-18T05:15:41;99211.81;;;6.99;84.79
21779;BME280;11050;52.222;20.916;2023-02-18T05:18:07;99212.69;;;7.05;84.23
21779;BME280;11050;52.222;20.916;2023-02-18T05:20:33;99263.81;;;7.09;84.05
21779;BME280;11050;52.222;20.916;2023-02-18T05:22:59;99215.94;;;7.02;83.71
21779;BME280;11050;52.222;20.916;2023-02-18T05:25:25;99247.38;;;7.04;84.06
21779;BME280;11050;52.222;20.916;2023-02-18T05:27:51;99223.88;;;7.03;84.18
21779;BME280;11050;52.222;20.916;2023-02-18T05:30:17;99225.53;;;7.04;84.33
21779;BME280;11050;52.222;20.916;2023-02-18T05:32:44;99227.16;;;7.05;84.13
21779;BME280;11050;52.222;20.916;2023-02-18T05:35:10;99264.50;;;7.00;84.72
21779;BME280;11050;52.222;20.916;2023-02-18T05:37:36;99242.19;;;7.03;84.96
21779;BME280;11050;52.222;20.916;2023-02-18T05:40:03;99272.97;;;6.98;85.03
21779;BME280;11050;52.222;20.916;2023-02-18T05:42:28;99303.81;;;6.94;86.13
21779;BME280;11050;52.222;20.916;2023-02-18T05:44:54;99260.34;;;6.92;85.25
21779;BME280;11050;52.222;20.916;2023-02-18T05:47:20;99298.06;;;6.95;85.89
21779;BME280;11050;52.222;20.916;2023-02-18T05:49:45;99266.69;;;6.98;86.14
21779;BME280;11050;52.222;20.916;2023-02-18T05:52:11;99256.59;;;6.98;85.65
21779;BME280;11050;52.222;20.916;2023-02-18T05:54:38;99288.78;;;6.96;86.27
21779;BME280;11050;52.222;20.916;2023-02-18T05:57:04;99256.84;;;6.97;86.10
21779;BME280;11050;52.222;20.916;2023-02-18T05:59:30;99262.00;;;6.93;86.91
21779;BME280;11050;52.222;20.916;2023-02-18T06:01:56;99287.63;;;6.92;86.47
21779;BME280;11050;52.222;20.916;2023-02-18T06:04:22;99283.16;;;7.03;85.74
21779;BME280;11050;52.222;20.916;2023-02-18T06:06:48;99274.16;;;7.07;85.81
21779;BME280;11050;52.222;20.916;2023-02-18T06:09:14;99275.41;;;6.95;85.85
21779;BME280;11050;52.222;20.916;2023-02-18T06:11:40;99298.34;;;6.94;86.72
21779;BME280;11050;52.222;20.916;2023-02-18T06:14:06;99263.72;;;6.99;85.54
21779;BME280;11050;52.222;20.916;2023-02-18T06:16:32;99303.84;;;6.99;84.02
21779;BME280;11050;52.222;20.916;2023-02-18T06:18:57;99283.00;;;6.93;84.70
21779;BME280;11050;52.222;20.916;2023-02-18T06:21:23;99296.50;;;6.99;83.88
21779;BME280;11050;52.222;20.916;2023-02-18T06:23:49;99299.22;;;6.99;83.44
21779;BME280;11050;52.222;20.916;2023-02-18T06:26:15;99295.66;;;6.99;84.29
21779;BME280;11050;52.222;20.916;2023-02-18T06:28:40;99289.63;;;6.97;85.41
21779;BME280;11050;52.222;20.916;2023-02-18T06:31:06;99285.78;;;6.98;84.17
21779;BME280;11050;52.222;20.916;2023-02-18T06:33:32;99310.25;;;7.09;83.53
21779;BME280;11050;52.222;20.916;2023-02-18T06:36:05;99305.81;;;7.03;83.59
21779;BME280;11050;52.222;20.916;2023-02-18T06:38:33;99282.94;;;7.09;83.23
21779;BME280;11050;52.222;20.916;2023-02-18T06:41:00;99335.09;;;7.08;83.12
21779;BME280;11050;52.222;20.916;2023-02-18T06:43:26;99285.91;;;7.08;82.73
21779;BME280;11050;52.222;20.916;2023-02-18T06:45:52;99305.63;;;7.10;82.24
21779;BME280;11050;52.222;20.916;2023-02-18T06:48:17;99339.72;;;7.07;82.60
21779;BME280;11050;52.222;20.916;2023-02-18T06:50:44;99332.94;;;7.10;82.80
21779;BME280;11050;52.222;20.916;2023-02-18T06:53:10;99314.19;;;7.18;83.36
21779;BME280;11050;52.222;20.916;2023-02-18T06:55:36;99354.34;;;7.18;82.38
21779;BME280;11050;52.222;20.916;2023-02-18T06:58:02;99322.31;;;7.13;82.75
21779;BME280;11050;52.222;20.916;2023-02-18T07:00:28;99378.41;;;7.21;82.14
21779;BME280;11050;52.222;20.916;2023-02-18T07:02:53;99338.25;;;7.21;82.32
21779;BME280;11050;52.222;20.916;2023-02-18T07:05:19;99357.38;;;7.21;82.65
21779;BME280;11050;52.222;20.916;2023-02-18T07:07:45;99346.97;;;7.18;82.02
21779;BME280;11050;52.222;20.916;2023-02-18T07:10:11;99353.56;;;7.22;82.12
21779;BME280;11050;52.222;20.916;2023-02-18T07:12:36;99397.53;;;7.21;82.72
21779;BME280;11050;52.222;20.916;2023-02-18T07:15:03;99341.00;;;7.21;82.74
21779;BME280;11050;52.222;20.916;2023-02-18T07:17:28;99328.63;;;7.14;82.88
21779;BME280;11050;52.222;20.916;2023-02-18T07:19:54;99352.75;;;7.22;82.87
21779;BME280;11050;52.222;20.916;2023-02-18T07:22:21;99322.19;;;7.25;81.68
21779;BME280;11050;52.222;20.916;2023-02-18T07:24:53;99371.69;;;7.28;81.47
21779;BME280;11050;52.222;20.916;2023-02-18T07:27:20;99347.34;;;7.27;82.53
21779;BME280;11050;52.222;20.916;2023-02-18T07:29:45;99339.50;;;7.35;81.39
21779;BME280;11050;52.222;20.916;2023-02-18T07:32:13;99336.84;;;7.40;81.44
21779;BME280;11050;52.222;20.916;2023-02-18T07:34:39;99395.06;;;7.41;81.09
21779;BME280;11050;52.222;20.916;2023-02-18T07:37:05;99349.50;;;7.46;79.70
21779;BME280;11050;52.222;20.916;2023-02-18T07:39:42;99346.09;;;7.39;80.83
21779;BME280;11050;52.222;20.916;2023-02-18T07:42:09;99353.91;;;7.52;80.79
21779;BME280;11050;52.222;20.916;2023-02-18T07:44:36;99339.28;;;7.63;80.21
21779;BME280;11050;52.222;20.916;2023-02-18T07:47:04;99323.41;;;7.65;79.31
21779;BME280;11050;52.222;20.916;2023-02-18T07:49:32;99366.25;;;7.55;79.60
21779;BME280;11050;52.222;20.916;2023-02-18T07:51:59;99353.28;;;7.72;79.12
21779;BME280;11050;52.222;20.916;2023-02-18T07:54:25;99375.44;;;7.71;78.55
21779;BME280;11050;52.222;20.916;2023-02-18T07:56:50;99370.53;;;7.73;78.83
21779;BME280;11050;52.222;20.916;2023-02-18T07:59:16;99338.31;;;7.80;78.35
21779;BME280;11050;52.222;20.916;2023-02-18T08:01:42;99345.78;;;7.84;78.06
21779;BME280;11050;52.222;20.916;2023-02-18T08:04:08;99391.47;;;7.89;76.86
21779;BME280;11050;52.222;20.916;2023-02-18T08:06:41;99325.53;;;7.85;76.83
21779;BME280;11050;52.222;20.916;2023-02-18T08:09:07;99342.53;;;7.92;76.81
21779;BME280;11050;52.222;20.916;2023-02-18T08:11:34;99355.34;;;7.87;77.39
21779;BME280;11050;52.222;20.916;2023-02-18T08:14:00;99377.19;;;7.82;77.54
21779;BME280;11050;52.222;20.916;2023-02-18T08:16:26;99467.03;;;7.95;76.69
21779;BME280;11050;52.222;20.916;2023-02-18T08:18:53;99340.63;;;7.93;77.38
21779;BME280;11050;52.222;20.916;2023-02-18T08:21:22;99376.19;;;7.93;75.81
21779;BME280;11050;52.222;20.916;2023-02-18T08:23:48;99350.50;;;7.94;76.95
21779;BME280;11050;52.222;20.916;2023-02-18T08:26:15;99325.31;;;7.92;77.17
21779;BME280;11050;52.222;20.916;2023-02-18T08:28:42;99359.25;;;7.96;77.56
21779;BME280;11050;52.222;20.916;2023-02-18T08:31:33;99356.84;;;7.99;77.17
21779;BME280;11050;52.222;20.916;2023-02-18T08:34:00;99347.34;;;8.07;75.63
21779;BME280;11050;52.222;20.916;2023-02-18T08:36:27;99344.91;;;8.10;75.98
21779;BME280;11050;52.222;20.916;2023-02-18T08:38:53;99388.34;;;8.33;74.81
21779;BME280;11050;52.222;20.916;2023-02-18T08:41:19;99365.38;;;8.34;73.35
21779;BME280;11050;52.222;20.916;2023-02-18T08:43:46;99350.84;;;8.34;72.68
21779;BME280;11050;52.222;20.916;2023-02-18T08:46:12;99385.97;;;8.42;72.62
21779;BME280;11050;52.222;20.916;2023-02-18T08:48:38;99350.63;;;8.40;73.71
21779;BME280;11050;52.222;20.916;2023-02-18T08:51:18;99383.75;;;8.39;72.42
21779;BME280;11050;52.222;20.916;2023-02-18T08:53:45;99363.97;;;8.32;72.05
21779;BME280;11050;52.222;20.916;2023-02-18T08:56:13;99371.97;;;8.38;70.95
21779;BME280;11050;52.222;20.916;2023-02-18T08:58:40;99378.22;;;8.34;72.50
21779;BME280;11050;52.222;20.916;2023-02-18T09:01:09;99389.47;;;8.37;73.68
21779;BME280;11050;52.222;20.916;2023-02-18T09:03:35;99461.50;;;8.43;71.86
21779;BME280;11050;52.222;20.916;2023-02-18T09:06:02;99376.06;;;8.41;73.31
21779;BME280;11050;52.222;20.916;2023-02-18T09:08:28;99375.84;;;8.42;72.01
21779;BME280;11050;52.222;20.916;2023-02-18T09:11:00;99398.53;;;8.43;73.18
21779;BME280;11050;52.222;20.916;2023-02-18T09:13:26;99391.69;;;8.40;73.44
21779;BME280;11050;52.222;20.916;2023-02-18T09:16:06;99384.06;;;8.42;71.44
21779;BME280;11050;52.222;20.916;2023-02-18T09:18:33;99408.59;;;8.32;72.51
21779;BME280;11050;52.222;20.916;2023-02-18T09:21:05;99399.06;;;8.35;73.26
21779;BME280;11050;52.222;20.916;2023-02-18T09:23:32;99425.63;;;8.39;72.61
21779;BME280;11050;52.222;20.916;2023-02-18T09:25:59;99423.69;;;8.35;70.73
21779;BME280;11050;52.222;20.916;2023-02-18T09:28:25;99402.41;;;8.47;69.94
21779;BME280;11050;52.222;20.916;2023-02-18T09:30:51;99403.44;;;8.41;69.18
21779;BME280;11050;52.222;20.916;2023-02-18T09:33:17;99405.78;;;8.54;68.70
21779;BME280;11050;52.222;20.916;2023-02-18T09:35:45;99428.53;;;8.59;68.54
21779;BME280;11050;52.222;20.916;2023-02-18T09:38:15;99413.16;;;8.53;69.20
21779;BME280;11050;52.222;20.916;2023-02-18T09:40:51;99401.63;;;8.51;68.77
21779;BME280;11050;52.222;20.916;2023-02-18T09:43:35;99420.84;;;8.56;68.50
21779;BME280;11050;52.222;20.916;2023-02-18T09:46:07;99420.84;;;8.56;69.80
21779;BME280;11050;52.222;20.916;2023-02-18T09:48:43;99423.88;;;8.60;68.86
21779;BME280;11050;52.222;20.916;2023-02-18T09:51:15;99429.88;;;8.57;68.33
21779;BME280;11050;52.222;20.916;2023-02-18T09:53:43;99424.88;;;8.49;68.57
21779;BME280;11050;52.222;20.916;2023-02-18T09:56:22;99462.91;;;8.45;69.98
21779;BME280;11050;52.222;20.916;2023-02-18T09:58:51;99458.75;;;8.38;71.46
21779;BME280;11050;52.222;20.916;2023-02-18T10:01:32;99468.38;;;8.45;71.58
21779;BME280;11050;52.222;20.916;2023-02-18T10:06:52;99439.84;;;8.36;71.52
21779;BME280;11050;52.222;20.916;2023-02-18T10:09:35;99434.63;;;8.35;71.05
21779;BME280;11050;52.222;20.916;2023-02-18T10:12:19;99458.00;;;8.47;70.45
21779;BME280;11050;52.222;20.916;2023-02-18T10:14:58;99451.97;;;8.45;70.63
21779;BME280;11050;52.222;20.916;2023-02-18T10:17:28;99456.41;;;8.51;71.02
21779;BME280;11050;52.222;20.916;2023-02-18T10:19:57;99471.25;;;8.60;69.70
21779;BME280;11050;52.222;20.916;2023-02-18T10:22:25;99467.97;;;8.63;67.20
21779;BME280;11050;52.222;20.916;2023-02-18T10:24:55;99463.03;;;8.60;68.10
21779;BME280;11050;52.222;20.916;2023-02-18T10:27:32;99453.19;;;8.59;68.56
21779;BME280;11050;52.222;20.916;2023-02-18T10:30:45;99430.56;;;8.74;68.18
21779;BME280;11050;52.222;20.916;2023-02-18T10:36:46;99473.69;;;8.94;66.27
21779;BME280;11050;52.222;20.916;2023-02-18T10:39:43;99423.22;;;8.85;66.10
21779;BME280;11050;52.222;20.916;2023-02-18T10:50:49;99432.63;;;8.99;67.71
21779;BME280;11050;52.222;20.916;2023-02-18T10:53:34;99425.00;;;9.06;66.53
21779;BME280;11050;52.222;20.916;2023-02-18T10:56:01;99401.94;;;8.97;67.90
21779;BME280;11050;52.222;20.916;2023-02-18T10:58:45;99378.13;;;8.97;67.31
21779;BME280;11050;52.222;20.916;2023-02-18T11:01:18;99404.38;;;8.93;67.11
21779;BME280;11050;52.222;20.916;2023-02-18T11:04:11;99499.16;;;8.89;68.81
21779;BME280;11050;52.222;20.916;2023-02-18T11:06:47;99415.53;;;8.77;69.90
21779;BME280;11050;52.222;20.916;2023-02-18T11:09:29;99411.09;;;8.71;71.68
21779;BME280;11050;52.222;20.916;2023-02-18T11:14:48;99437.16;;;8.78;71.03
21779;BME280;11050;52.222;20.916;2023-02-18T11:17:29;99468.31;;;8.67;71.65
21779;BME280;11050;52.222;20.916;2023-02-18T11:20:01;99405.81;;;8.64;71.79
21779;BME280;11050;52.222;20.916;2023-02-18T11:22:32;99433.78;;;8.66;71.97
21779;BME280;11050;52.222;20.916;2023-02-18T11:25:03;99421.19;;;8.65;71.50
21779;BME280;11050;52.222;20.916;2023-02-18T11:27:45;99394.38;;;8.67;72.08
21779;BME280;11050;52.222;20.916;2023-02-18T11:30:20;99453.03;;;8.76;72.92
21779;BME280;11050;52.222;20.916;2023-02-18T11:32:56;99421.00;;;8.77;71.97
21779;BME280;11050;52.222;20.916;2023-02-18T11:35:28;99422.63;;;8.78;72.22
21779;BME280;11050;52.222;20.916;2023-02-18T11:37:59;99424.31;;;8.84;71.14
21779;BME280;11050;52.222;20.916;2023-02-18T11:40:34;99404.84;;;8.80;71.13
21779;BME280;11050;52.222;20.916;2023-02-18T11:43:15;99385.16;;;8.88;71.22
21779;BME280;11050;52.222;20.916;2023-02-18T11:45:42;99382.75;;;8.97;71.10
21779;BME280;11050;52.222;20.916;2023-02-18T11:48:16;99383.59;;;9.02;70.09
21779;BME280;11050;52.222;20.916;2023-02-18T11:50:44;99388.53;;;9.05;69.95
21779;BME280;11050;52.222;20.916;2023-02-18T11:53:35;99369.50;;;9.35;68.04
21779;BME280;11050;52.222;20.916;2023-02-18T11:56:07;99387.94;;;9.55;66.38
21779;BME280;11050;52.222;20.916;2023-02-18T11:58:46;99406.34;;;9.65;66.09
21779;BME280;11050;52.222;20.916;2023-02-18T12:01:26;99377.22;;;9.48;66.62
21779;BME280;11050;52.222;20.916;2023-02-18T12:04:51;99400.75;;;9.34;67.55
21779;BME280;11050;52.222;20.916;2023-02-18T12:07:42;99408.16;;;9.34;68.29
21779;BME280;11050;52.222;20.916;2023-02-18T12:10:31;99366.97;;;9.24;69.14
21779;BME280;11050;52.222;20.916;2023-02-18T12:13:26;99363.44;;;9.23;69.18
21779;BME280;11050;52.222;20.916;2023-02-18T12:22:16;99350.56;;;9.39;67.76
21779;BME280;11050;52.222;20.916;2023-02-18T12:27:40;99357.44;;;9.36;67.60
21779;BME280;11050;52.222;20.916;2023-02-18T12:30:27;99412.84;;;9.38;68.24
21779;BME280;11050;52.222;20.916;2023-02-18T12:32:58;99375.53;;;9.32;66.13
21779;BME280;11050;52.222;20.916;2023-02-18T12:48:19;99337.97;;;9.43;64.75
21779;BME280;11050;52.222;20.916;2023-02-18T12:51:08;99347.59;;;9.50;65.43
21779;BME280;11050;52.222;20.916;2023-02-18T13:05:52;99316.97;;;9.84;63.98
21779;BME280;11050;52.222;20.916;2023-02-18T13:08:40;99338.88;;;9.69;64.39
21779;BME280;11050;52.222;20.916;2023-02-18T13:14:03;99317.72;;;9.44;66.03
21779;BME280;11050;52.222;20.916;2023-02-18T13:16:34;99297.38;;;9.20;67.25
21779;BME280;11050;52.222;20.916;2023-02-18T13:21:48;99296.72;;;8.98;68.15
21779;BME280;11050;52.222;20.916;2023-02-18T13:24:34;99289.84;;;8.90;69.25
21779;BME280;11050;52.222;20.916;2023-02-18T13:27:35;99299.72;;;8.91;70.26
21779;BME280;11050;52.222;20.916;2023-02-18T13:33:07;99308.94;;;8.75;69.78
21779;BME280;11050;52.222;20.916;2023-02-18T13:39:08;99308.91;;;8.70;71.20
21779;BME280;11050;52.222;20.916;2023-02-18T13:41:41;99305.63;;;8.68;71.59
21779;BME280;11050;52.222;20.916;2023-02-18T13:46:57;99306.41;;;8.63;72.32
21779;BME280;11050;52.222;20.916;2023-02-18T13:49:33;99323.09;;;8.62;72.69
21779;BME280;11050;52.222;20.916;2023-02-18T13:52:02;99304.75;;;8.57;72.64
21779;BME280;11050;52.222;20.916;2023-02-18T13:54:31;99322.31;;;8.62;73.43
21779;BME280;11050;52.222;20.916;2023-02-18T13:57:02;99315.94;;;8.56;72.58
21779;BME280;11050;52.222;20.916;2023-02-18T13:59:39;99325.25;;;8.55;72.41
21779;BME280;11050;52.222;20.916;2023-02-18T14:05:40;99293.09;;;8.35;73.03
21779;BME280;11050;52.222;20.916;2023-02-18T14:08:04;99300.53;;;8.40;72.93
21779;BME280;11050;52.222;20.916;2023-02-18T14:10:34;99302.69;;;8.38;73.03
21779;BME280;11050;52.222;20.916;2023-02-18T14:13:24;99296.41;;;8.37;73.67
21779;BME280;11050;52.222;20.916;2023-02-18T14:15:57;99287.34;;;8.32;74.12
21779;BME280;11050;52.222;20.916;2023-02-18T14:18:30;99281.78;;;8.22;74.58
21779;BME280;11050;52.222;20.916;2023-02-18T14:26:24;99292.47;;;8.23;76.28
21779;BME280;11050;52.222;20.916;2023-02-18T14:29:04;99298.75;;;8.24;76.81
21779;BME280;11050;52.222;20.916;2023-02-18T14:37:33;99285.59;;;8.21;77.95
21779;BME280;11050;52.222;20.916;2023-02-18T14:40:26;99269.09;;;8.11;79.14
21779;BME280;11050;52.222;20.916;2023-02-18T14:51:33;99246.91;;;8.07;80.60
21779;BME280;11050;52.222;20.916;2023-02-18T14:54:12;99257.91;;;8.12;80.61
21779;BME280;11050;52.222;20.916;2023-02-18T14:56:59;99272.75;;;8.21;79.30
21779;BME280;11050;52.222;20.916;2023-02-18T14:59:30;99260.97;;;8.21;78.35
21779;BME280;11050;52.222;20.916;2023-02-18T15:01:58;99253.22;;;8.08;76.23
21779;BME280;11050;52.222;20.916;2023-02-18T15:04:25;99272.03;;;7.99;75.10
21779;BME280;11050;52.222;20.916;2023-02-18T15:07:02;99279.59;;;7.87;75.93
21779;BME280;11050;52.222;20.916;2023-02-18T15:09:28;99305.41;;;7.69;79.12
21779;BME280;11050;52.222;20.916;2023-02-18T15:12:04;99326.09;;;7.60;82.13
21779;BME280;11050;52.222;20.916;2023-02-18T15:14:39;99277.63;;;7.51;84.75
21779;BME280;11050;52.222;20.916;2023-02-18T15:17:14;99298.28;;;7.37;86.81
21779;BME280;11050;52.222;20.916;2023-02-18T15:19:51;99248.22;;;7.05;90.54
21779;BME280;11050;52.222;20.916;2023-02-18T15:22:21;99287.97;;;6.96;95.39
21779;BME280;11050;52.222;20.916;2023-02-18T15:24:50;99291.28;;;6.76;99.21